Time;durP1;ratioP1;P1;durP2;ratioP2;P2;SDS_P1;SDS_P2;PMS_P1;PMS_P2;Temp;Humidity;BMP_temperature;BMP_pressure;BME280_temperature;BME280_humidity;BME280_pressure;Samples;Min_cycle;Max_cycle;Signal;HPM_P1;HPM_P2
2023/08/24 00:01:12;;;;;;;7.35;5.68;;;22.80;58.60;;;24.65;45.01;97837.44;5030675;28;20193;-62
2023/08/24 00:03:40;;;;;;;5.75;4.45;;;22.80;58.90;;;24.64;45.02;97837.69;5031305;28;20497;-62
2023/08/24 00:06:08;;;;;;;9.20;4.97;;;22.80;59.20;;;24.59;45.30;97833.00;5031213;28;20045;-62
2023/08/24 00:08:35;;;;;;;6.45;5.35;;;22.80;59.50;;;24.56;45.21;97834.31;5031034;28;20060;-61
2023/08/24 00:11:04;;;;;;;7.72;5.40;;;22.80;59.50;;;24.55;45.16;97829.13;5031168;28;20037;-62
2023/08/24 00:13:32;;;;;;;5.72;5.03;;;22.70;59.40;;;24.51;45.23;97830.69;5030868;28;20049;-62
2023/08/24 00:15:59;;;;;;;8.20;5.32;;;22.70;59.80;;;24.49;45.25;97828.19;5031233;28;20037;-61
2023/08/24 00:18:27;;;;;;;5.47;4.90;;;22.60;59.70;;;24.48;45.04;97826.53;5030796;28;20068;-61
2023/08/24 00:20:55;;;;;;;7.43;5.82;;;22.70;59.80;;;24.47;45.38;97815.91;5031181;28;20068;-62
2023/08/24 00:23:22;;;;;;;6.50;4.68;;;22.70;59.80;;;24.46;45.38;97815.06;5029285;28;20049;-62
2023/08/24 00:25:50;;;;;;;5.60;4.95;;;22.70;59.80;;;24.45;45.40;97809.88;5027252;28;20497;-62
2023/08/24 00:28:17;;;;;;;7.70;5.72;;;22.70;59.80;;;24.44;45.63;97809.03;5031091;28;20045;-62
2023/08/24 00:30:45;;;;;;;8.23;5.95;;;22.70;60.10;;;24.42;45.60;97807.66;5029788;28;20053;-62
2023/08/24 00:33:13;;;;;;;7.25;5.80;;;22.70;60.20;;;24.40;45.65;97807.88;5030914;28;20042;-62
2023/08/24 00:35:40;;;;;;;8.07;6.93;;;22.70;60.50;;;24.38;45.82;97812.75;5031067;28;20053;-62
2023/08/24 00:38:08;;;;;;;6.10;5.50;;;22.60;60.50;;;24.36;46.08;97812.16;5031326;28;20043;-62
2023/08/24 00:40:35;;;;;;;6.78;5.72;;;22.60;60.80;;;24.33;45.93;97807.22;5028518;28;20049;-62
2023/08/24 00:43:03;;;;;;;7.32;6.68;;;22.50;60.70;;;24.31;46.04;97796.59;5029396;28;20053;-62
2023/08/24 00:45:32;;;;;;;8.05;5.65;;;22.60;60.90;;;24.30;46.11;97794.13;5029109;28;20057;-62
2023/08/24 00:48:02;;;;;;;6.80;5.13;;;22.50;61.10;;;24.27;46.17;97795.44;5029578;28;20219;-63
2023/08/24 00:50:29;;;;;;;5.85;5.03;;;22.50;61.00;;;24.28;46.16;97790.81;5029421;28;20060;-62
2023/08/24 00:52:58;;;;;;;7.22;6.03;;;22.50;60.90;;;24.27;46.26;97783.72;5029645;28;20505;-62
2023/08/24 00:55:26;;;;;;;6.40;5.72;;;22.50;61.20;;;24.25;46.30;97773.06;5029014;28;20050;-62
2023/08/24 00:57:54;;;;;;;6.70;5.40;;;22.50;62.20;;;24.27;46.31;97776.41;5022849;28;20048;-62
2023/08/24 01:00:22;;;;;;;6.10;5.38;;;22.50;61.20;;;24.28;46.24;97767.16;5012890;28;20061;-62
2023/08/24 01:02:51;;;;;;;8.45;6.15;;;22.70;60.40;;;24.35;45.92;97777.91;5023854;28;20041;-62
2023/08/24 01:05:18;;;;;;;7.85;5.25;;;22.80;59.70;;;24.41;45.95;97773.34;5033924;28;20056;-62
2023/08/24 01:07:47;;;;;;;7.93;5.55;;;22.90;59.20;;;24.47;45.78;97778.63;5033274;28;20057;-62
2023/08/24 01:10:15;;;;;;;8.13;5.93;;;23.00;58.90;;;24.51;45.77;97766.19;5032961;28;20046;-62
2023/08/24 01:12:58;;;;;;;6.70;5.40;;;23.00;59.60;;;24.54;45.41;97765.72;5032422;28;20049;-62
2023/08/24 01:15:38;;;;;;;5.93;4.50;;;23.10;58.80;;;24.58;45.54;97763.28;5017546;28;20060;-62
2023/08/24 01:18:13;;;;;;;6.30;5.05;;;23.00;58.70;;;24.62;45.39;97752.75;5026701;28;20049;-62
2023/08/24 01:20:43;;;;;;;8.23;5.18;;;23.10;58.70;;;24.64;45.39;97753.31;5034165;28;20049;-62
2023/08/24 01:24:04;;;;;;;5.97;4.80;;;23.20;58.40;;;24.61;45.12;97762.00;5016531;28;20048;-62
2023/08/24 01:26:32;;;;;;;5.18;4.53;;;23.20;57.90;;;24.64;45.26;97758.75;5016071;28;20057;-62
2023/08/24 01:29:03;;;;;;;8.07;5.05;;;23.30;57.70;;;24.63;45.23;97763.38;5015568;28;20060;-62
2023/08/24 01:31:30;;;;;;;7.10;5.32;;;23.40;57.50;;;24.66;45.44;97770.22;5024716;28;20061;-62
2023/08/24 01:33:59;;;;;;;5.57;4.97;;;23.40;57.50;;;24.67;45.14;97766.44;5033239;28;20417;-62
2023/08/24 01:36:28;;;;;;;6.70;5.07;;;23.40;57.50;;;24.69;45.15;97776.00;5033910;28;20048;-62
2023/08/24 01:39:20;;;;;;;6.95;5.35;;;23.40;57.50;;;24.70;45.34;97774.13;5016728;28;20045;-62
2023/08/24 01:41:52;;;;;;;7.87;5.30;;;23.40;58.50;;;24.76;45.36;97773.13;5033477;28;20053;-62
2023/08/24 01:44:22;;;;;;;9.43;5.50;;;23.40;57.80;;;24.79;45.36;97772.59;5032326;28;20053;-62
2023/08/24 01:46:52;;;;;;;6.25;5.25;;;23.40;57.90;;;24.78;45.34;97779.13;5032875;28;20524;-62
2023/08/24 01:49:20;;;;;;;5.32;4.80;;;23.40;57.90;;;24.79;45.36;97783.50;5032222;28;20050;-62
2023/08/24 01:51:49;;;;;;;6.18;4.55;;;23.40;58.00;;;24.81;45.36;97791.41;5032481;28;20196;-62
2023/08/24 01:54:17;;;;;;;6.75;5.57;;;23.40;58.00;;;24.79;45.29;97786.22;5032237;28;20093;-62
2023/08/24 01:56:45;;;;;;;7.97;5.70;;;23.30;58.10;;;24.73;45.49;97788.03;5033558;28;20049;-62
2023/08/24 01:59:14;;;;;;;9.40;6.68;;;23.30;58.50;;;24.70;45.59;97788.53;5024643;28;20409;-63
2023/08/24 02:01:41;;;;;;;7.65;6.07;;;23.10;58.70;;;24.66;45.66;97790.13;5032208;28;20061;-62
2023/08/24 02:04:09;;;;;;;8.38;5.65;;;23.10;59.00;;;24.63;45.72;97785.16;5033376;28;20042;-62
2023/08/24 02:06:37;;;;;;;7.75;6.65;;;23.00;59.10;;;24.59;45.48;97789.47;5031978;28;20068;-62
2023/08/24 02:09:05;;;;;;;6.63;6.03;;;22.90;59.60;;;24.52;45.89;97786.91;5031581;28;20046;-61
2023/08/24 02:11:32;;;;;;;6.72;6.05;;;22.80;60.10;;;24.49;45.77;97778.38;5031637;28;20053;-62
2023/08/24 02:14:02;;;;;;;8.23;6.55;;;22.70;60.60;;;24.46;46.18;97778.88;5031550;28;20046;-61
2023/08/24 02:16:30;;;;;;;6.70;6.10;;;22.60;61.00;;;24.40;46.38;97780.69;5033568;28;20494;-62
2023/08/24 02:18:57;;;;;;;6.22;5.63;;;22.60;61.50;;;24.33;46.59;97782.72;5015826;28;20052;-62
2023/08/24 02:21:25;;;;;;;7.53;6.00;;;22.50;61.80;;;24.27;46.51;97770.13;5031495;28;20048;-62
2023/08/24 02:23:54;;;;;;;7.95;6.20;;;22.40;62.10;;;24.20;46.76;97767.56;5033068;28;20041;-62
2023/08/24 02:26:21;;;;;;;6.90;6.10;;;22.30;62.80;;;24.16;46.78;97763.69;5033029;28;20052;-62
2023/08/24 02:28:49;;;;;;;8.20;5.97;;;22.30;62.70;;;24.10;46.87;97767.41;5032074;28;20046;-62
2023/08/24 02:31:17;;;;;;;6.57;5.95;;;22.20;63.10;;;24.08;47.07;97770.38;5030984;28;20053;-62
2023/08/24 02:33:44;;;;;;;6.80;6.05;;;22.20;63.10;;;24.10;47.15;97764.69;5032828;28;20053;-62
2023/08/24 02:36:12;;;;;;;7.03;6.32;;;22.30;63.20;;;24.07;47.22;97765.97;5031655;28;20041;-62
2023/08/24 02:38:39;;;;;;;8.15;7.40;;;22.20;63.10;;;24.06;47.22;97763.50;5031024;28;20049;-62
2023/08/24 02:41:08;;;;;;;7.43;6.72;;;22.30;63.30;;;24.06;47.42;97763.50;5032734;28;20037;-62
2023/08/24 02:43:36;;;;;;;8.30;7.50;;;22.30;63.40;;;24.06;47.54;97760.78;5023229;28;20054;-62
2023/08/24 02:46:08;;;;;;;8.95;8.00;;;22.30;63.60;;;24.04;47.64;97760.19;5023610;28;20505;-62
2023/08/24 02:48:36;;;;;;;9.18;8.23;;;22.30;64.00;;;24.02;47.75;97763.19;5032658;28;20531;-62
2023/08/24 02:51:05;;;;;;;9.85;8.95;;;22.30;64.00;;;24.00;47.79;97761.75;5032434;28;20045;-62
2023/08/24 02:53:33;;;;;;;12.40;9.10;;;22.20;63.80;;;23.98;47.89;97762.00;5030893;28;20054;-62
2023/08/24 02:56:01;;;;;;;11.93;10.93;;;22.20;63.90;;;23.94;47.81;97769.00;5030167;28;20525;-62
2023/08/24 02:58:29;;;;;;;11.45;10.23;;;22.20;63.80;;;23.89;47.72;97760.78;5032487;28;20045;-62
2023/08/24 03:00:57;;;;;;;11.55;10.52;;;22.10;64.00;;;23.86;47.86;97753.91;5032092;28;20497;-62
2023/08/24 03:03:25;;;;;;;11.82;10.07;;;22.10;64.30;;;23.81;47.83;97751.13;5014698;28;20413;-62
2023/08/24 03:06:01;;;;;;;10.63;9.52;;;22.00;64.40;;;23.81;48.24;97756.56;5032142;28;20049;-62
2023/08/24 03:08:31;;;;;;;10.63;9.52;;;22.10;64.90;;;23.80;48.05;97751.34;5014803;28;20049;-62
2023/08/24 03:11:00;;;;;;;11.98;10.68;;;22.10;64.60;;;23.77;48.18;97750.75;5030279;28;20045;-62
2023/08/24 03:13:29;;;;;;;11.30;10.07;;;22.00;64.80;;;23.73;48.17;97760.47;5031230;28;20049;-62
2023/08/24 03:15:57;;;;;;;12.02;10.82;;;22.00;65.00;;;23.69;48.51;97748.44;5030027;28;20061;-62
2023/08/24 03:18:28;;;;;;;11.13;10.05;;;21.90;65.20;;;23.66;48.61;97748.91;5039032;28;20046;-62
2023/08/24 03:20:56;;;;;;;12.00;10.70;;;21.90;65.70;;;23.63;48.71;97748.56;5030164;28;20046;-62
2023/08/24 03:23:24;;;;;;;14.23;10.05;;;21.90;66.00;;;23.60;48.52;97747.16;5031627;28;20076;-62
2023/08/24 03:25:52;;;;;;;14.70;10.20;;;21.80;66.30;;;23.54;48.85;97740.81;5028913;28;20044;-62
2023/08/24 03:28:20;;;;;;;12.63;11.32;;;21.70;66.70;;;23.53;48.77;97730.19;5030195;28;20049;-62
2023/08/24 03:30:52;;;;;;;11.98;9.85;;;21.70;67.00;;;23.53;49.18;97719.31;5031637;28;20049;-62
2023/08/24 03:33:20;;;;;;;10.97;9.97;;;21.70;67.30;;;23.52;49.20;97720.38;5031684;28;20046;-62
2023/08/24 03:35:49;;;;;;;11.50;9.85;;;21.70;67.80;;;23.53;49.40;97713.88;5030871;28;20046;-62
2023/08/24 03:38:17;;;;;;;11.40;10.23;;;21.70;67.60;;;23.53;49.29;97713.88;5031861;28;20050;-62
2023/08/24 03:40:44;;;;;;;9.77;8.77;;;21.80;67.90;;;23.53;49.69;97722.03;5031266;28;20045;-62
2023/08/24 03:43:12;;;;;;;10.95;9.45;;;21.70;68.10;;;23.52;49.71;97707.63;5030654;28;20421;-62
2023/08/24 03:45:41;;;;;;;10.05;9.02;;;21.70;68.20;;;23.53;49.73;97706.53;5031658;28;20041;-62
2023/08/24 03:48:10;;;;;;;13.35;10.40;;;21.80;67.80;;;23.52;49.84;97694.03;5006733;28;20049;-62
2023/08/24 03:50:38;;;;;;;11.07;9.55;;;21.80;67.80;;;23.53;49.84;97692.94;5030485;28;20057;-62
2023/08/24 03:53:07;;;;;;;12.43;10.13;;;21.90;67.80;;;23.54;49.93;97697.34;5029879;28;20056;-62
2023/08/24 03:55:34;;;;;;;12.32;10.35;;;21.90;68.30;;;23.56;50.03;97691.66;5030227;28;20058;-62
2023/08/24 03:58:03;;;;;;;12.25;10.98;;;21.80;68.60;;;23.57;50.14;97694.13;5031068;28;20050;-62
2023/08/24 04:00:30;;;;;;;10.80;9.73;;;21.90;68.80;;;23.59;50.21;97685.72;5031097;28;20413;-62
2023/08/24 04:02:59;;;;;;;12.27;11.18;;;21.90;68.90;;;23.62;50.20;97684.44;5029983;28;20125;-62
2023/08/24 04:05:28;;;;;;;14.52;11.65;;;21.90;68.90;;;23.62;50.32;97677.09;5038546;28;20390;-62
2023/08/24 04:07:57;;;;;;;11.77;10.68;;;21.90;68.90;;;23.66;50.23;97674.72;5031397;28;20042;-62
2023/08/24 04:10:25;;;;;;;11.98;10.48;;;21.90;69.30;;;23.64;50.52;97677.66;5029733;28;20532;-61
2023/08/24 04:12:53;;;;;;;11.70;10.55;;;21.90;69.50;;;23.64;50.50;97677.66;5029983;28;20057;-62
2023/08/24 04:15:22;;;;;;;13.05;11.75;;;21.90;69.50;;;23.64;50.52;97668.69;5029452;28;20045;-62
2023/08/24 04:17:50;;;;;;;12.55;11.35;;;21.90;69.60;;;23.62;50.62;97671.66;5031030;28;20048;-62
2023/08/24 04:20:18;;;;;;;11.05;10.02;;;21.90;69.80;;;23.59;50.59;97670.25;5030275;28;20220;-62
2023/08/24 04:22:45;;;;;;;13.40;10.88;;;21.80;70.10;;;23.58;50.53;97676.75;5031109;28;20493;-62
2023/08/24 04:25:13;;;;;;;12.55;11.35;;;21.80;70.00;;;23.54;50.69;97678.31;5031234;28;20497;-62
2023/08/24 04:27:41;;;;;;;12.00;10.88;;;21.80;70.10;;;23.52;50.70;97677.72;5030974;28;20540;-62
2023/08/24 04:30:11;;;;;;;11.18;10.00;;;21.80;69.80;;;23.50;50.78;97679.88;5030205;28;20049;-62
2023/08/24 04:32:39;;;;;;;14.77;10.60;;;21.80;69.90;;;23.50;50.66;97676.34;5030872;28;20052;-62
2023/08/24 04:35:08;;;;;;;10.32;9.32;;;21.80;69.90;;;23.50;50.67;97677.16;5030902;28;20045;-62
2023/08/24 04:37:37;;;;;;;9.23;8.32;;;21.80;69.40;;;23.50;50.60;97669.00;5032406;28;20056;-62
2023/08/24 04:40:07;;;;;;;10.70;9.35;;;21.80;69.20;;;23.47;50.48;97669.47;5035482;28;20056;-62
2023/08/24 04:42:34;;;;;;;10.45;7.93;;;21.80;69.10;;;23.48;50.55;97664.91;5033728;28;20041;-62
2023/08/24 04:45:02;;;;;;;8.30;7.20;;;21.80;68.80;;;23.49;50.28;97666.53;5035014;28;20053;-62
2023/08/24 04:47:30;;;;;;;9.43;5.93;;;21.90;68.40;;;23.48;50.06;97662.19;5034884;28;20045;-62
2023/08/24 04:49:57;;;;;;;7.53;6.78;;;21.90;67.70;;;23.49;49.86;97667.34;5034500;28;20104;-62
2023/08/24 04:52:25;;;;;;;9.55;6.57;;;21.90;67.30;;;23.51;49.76;97667.91;5034869;28;20413;-62
2023/08/24 04:54:53;;;;;;;8.77;6.25;;;21.90;66.70;;;23.53;49.55;97667.69;5034762;28;20049;-62
2023/08/24 04:57:20;;;;;;;7.13;6.25;;;21.90;66.70;;;23.55;49.57;97670.97;5035275;28;20049;-62
2023/08/24 04:59:51;;;;;;;8.60;7.05;;;21.90;66.50;;;23.56;49.48;97661.78;5034450;28;20049;-62
2023/08/24 05:02:19;;;;;;;9.32;6.72;;;22.00;66.30;;;23.58;49.53;97667.78;5032846;28;20056;-62
2023/08/24 05:04:48;;;;;;;10.23;7.53;;;22.00;66.60;;;23.56;49.59;97662.59;5034815;28;20040;-62
2023/08/24 05:07:17;;;;;;;7.93;7.18;;;22.00;66.90;;;23.56;49.85;97662.59;5034251;28;20064;-62
2023/08/24 05:09:45;;;;;;;9.75;7.82;;;22.10;67.00;;;23.50;50.19;97650.00;5034370;28;20057;-62
2023/08/24 05:12:12;;;;;;;13.10;8.07;;;22.10;67.30;;;23.48;50.13;97648.59;5034186;28;20417;-62
2023/08/24 05:14:40;;;;;;;9.20;8.10;;;22.10;67.30;;;23.48;50.60;97646.69;5034649;28;20064;-62
2023/08/24 05:17:07;;;;;;;8.48;6.95;;;22.10;67.60;;;23.51;50.49;97648.09;5034031;28;20041;-60
2023/08/24 05:19:35;;;;;;;8.27;7.43;;;22.00;67.80;;;23.55;50.38;97641.09;5034153;28;20046;-60
2023/08/24 05:22:02;;;;;;;8.15;7.30;;;22.00;67.70;;;23.56;50.28;97637.31;5034356;28;20045;-60
2023/08/24 05:24:30;;;;;;;9.13;7.75;;;22.10;67.90;;;23.59;50.42;97642.25;5034546;28;20049;-60
2023/08/24 05:26:57;;;;;;;10.80;7.55;;;22.10;68.30;;;23.62;50.52;97638.25;5034013;28;20049;-60
2023/08/24 05:29:25;;;;;;;8.13;7.32;;;22.00;69.00;;;23.61;50.57;97623.00;5032971;28;20057;-62
2023/08/24 05:31:53;;;;;;;8.75;7.30;;;22.10;68.70;;;23.62;50.65;97620.03;5032717;28;20448;-62
2023/08/24 05:34:20;;;;;;;9.82;8.23;;;22.10;68.50;;;23.67;50.70;97624.72;5026083;28;20408;-61
2023/08/24 05:36:48;;;;;;;9.52;8.63;;;22.20;68.40;;;23.72;50.83;97625.63;5034074;28;20037;-65
2023/08/24 05:39:15;;;;;;;10.18;9.13;;;22.20;68.30;;;23.74;50.68;97619.94;5033377;28;20041;-60
2023/08/24 05:41:43;;;;;;;13.15;8.63;;;22.30;68.60;;;23.74;50.68;97617.22;5034113;28;20409;-61
2023/08/24 05:44:11;;;;;;;10.52;9.52;;;22.20;68.30;;;23.75;50.50;97617.00;5033720;28;20044;-60
2023/08/24 05:46:38;;;;;;;10.27;7.70;;;22.20;68.20;;;23.77;50.59;97619.47;5033094;28;20421;-61
2023/08/24 05:49:06;;;;;;;10.25;8.73;;;22.20;68.50;;;23.80;50.48;97624.44;5032664;28;20049;-63
2023/08/24 05:51:33;;;;;;;10.32;8.30;;;22.30;68.50;;;23.84;50.55;97625.56;5032003;28;20054;-63
2023/08/24 05:54:01;;;;;;;9.95;8.68;;;22.30;68.40;;;23.86;50.34;97626.16;5033606;28;20045;-62
2023/08/24 05:56:29;;;;;;;8.25;7.45;;;22.30;68.20;;;23.90;50.25;97629.19;5032538;28;20048;-62
2023/08/24 05:58:58;;;;;;;10.68;7.85;;;22.30;67.90;;;23.93;50.03;97629.53;5032361;28;20052;-62
2023/08/24 06:01:26;;;;;;;7.50;6.70;;;22.40;67.60;;;24.00;50.08;97637.53;5033230;28;20038;-62
2023/08/24 06:03:54;;;;;;;8.95;7.47;;;22.60;67.00;;;24.04;49.92;97638.69;5033464;28;20037;-63
2023/08/24 06:06:22;;;;;;;11.68;8.15;;;22.60;67.00;;;24.10;49.87;97645.84;5033433;28;20042;-64
2023/08/24 06:08:49;;;;;;;7.68;6.97;;;22.60;67.00;;;24.11;49.88;97642.03;5033415;28;20045;-62
2023/08/24 06:11:18;;;;;;;10.65;7.25;;;22.70;66.70;;;24.14;50.06;97647.00;5033141;28;20049;-62
2023/08/24 06:13:46;;;;;;;11.13;7.10;;;22.80;66.30;;;24.20;49.99;97647.91;5033103;28;20053;-63
2023/08/24 06:16:13;;;;;;;8.07;7.28;;;22.90;66.30;;;24.25;50.02;97655.31;5033389;28;20046;-63
2023/08/24 06:18:41;;;;;;;10.25;7.63;;;22.90;66.30;;;24.29;49.71;97654.56;5033233;28;20041;-61
2023/08/24 06:21:08;;;;;;;12.23;6.93;;;22.90;65.60;;;24.33;49.64;97663.03;5033024;28;20045;-61
2023/08/24 06:23:36;;;;;;;9.73;6.95;;;22.90;65.70;;;24.37;49.58;97662.31;5031690;28;20045;-63
2023/08/24 06:26:04;;;;;;;9.55;7.10;;;23.00;65.50;;;24.42;49.25;97675.16;5029937;28;20045;-62
2023/08/24 06:28:32;;;;;;;9.57;6.60;;;23.00;65.30;;;24.47;49.51;97677.13;5032624;28;20052;-62
2023/08/24 06:31:00;;;;;;;9.60;7.43;;;23.10;65.50;;;24.46;49.53;97692.63;5032811;28;20040;-63
2023/08/24 06:33:29;;;;;;;8.00;7.07;;;23.00;66.40;;;24.48;49.75;97703.25;5032778;28;20052;-62
2023/08/24 06:35:57;;;;;;;7.65;6.72;;;23.00;67.20;;;24.50;50.01;97710.09;5031777;28;20425;-61
2023/08/24 06:38:25;;;;;;;15.70;8.25;;;23.00;67.10;;;24.46;50.03;97724.44;5033149;28;20052;-62
2023/08/24 06:40:53;;;;;;;11.65;8.80;;;22.90;67.50;;;24.21;50.42;97743.91;5032430;28;20369;-62
2023/08/24 06:43:21;;;;;;;10.02;8.40;;;22.60;68.00;;;24.11;50.19;97748.09;5029506;28;20061;-63
2023/08/24 06:45:48;;;;;;;10.05;9.00;;;22.50;68.20;;;23.97;50.47;97754.94;5032765;28;20033;-62
2023/08/24 06:48:17;;;;;;;10.50;9.25;;;22.30;69.00;;;23.87;51.03;97738.44;5032662;28;20505;-62
2023/08/24 06:50:45;;;;;;;9.55;8.65;;;22.20;70.10;;;23.91;51.22;97739.59;5014533;28;20049;-62
2023/08/24 06:53:14;;;;;;;11.13;10.05;;;22.20;70.30;;;23.91;51.12;97731.44;5032026;28;20089;-65
2023/08/24 06:55:42;;;;;;;11.65;8.80;;;22.20;70.40;;;23.94;51.24;97733.66;5032717;28;20428;-63
2023/08/24 06:58:10;;;;;;;10.48;9.48;;;22.20;70.80;;;23.96;51.50;97713.34;5031489;28;20044;-62
2023/08/24 07:00:37;;;;;;;10.77;8.95;;;22.30;70.90;;;24.03;51.47;97699.56;5032220;28;20038;-62
2023/08/24 07:03:05;;;;;;;10.45;9.35;;;22.30;70.90;;;24.11;51.37;97676.56;5032204;28;20041;-62
2023/08/24 07:05:33;;;;;;;9.27;8.23;;;22.50;70.50;;;24.20;51.42;97660.69;5032298;28;20045;-62
2023/08/24 07:08:03;;;;;;;11.82;9.13;;;22.60;69.90;;;24.29;51.33;97662.72;5031251;28;20060;-62
2023/08/24 07:10:30;;;;;;;10.98;9.10;;;22.80;69.80;;;24.38;51.51;97666.66;5024198;28;20049;-63
2023/08/24 07:12:58;;;;;;;12.32;9.65;;;22.90;70.90;;;24.45;51.79;97673.84;5032186;28;20053;-63
2023/08/24 07:15:26;;;;;;;12.35;10.35;;;23.00;70.10;;;24.50;51.30;97687.50;5032193;28;20052;-63
2023/08/24 07:18:18;;;;;;;10.95;9.85;;;23.00;70.00;;;24.48;51.36;97682.31;5030213;28;20052;-63
2023/08/24 07:20:46;;;;;;;10.73;9.68;;;23.00;70.80;;;24.54;51.28;97686.81;5026120;28;20504;-63
2023/08/24 07:23:13;;;;;;;10.70;9.60;;;23.00;70.00;;;24.51;51.48;97676.41;5031429;28;20056;-63
2023/08/24 07:25:41;;;;;;;11.77;10.48;;;23.10;69.90;;;24.52;51.98;97680.78;5032087;28;20045;-61
2023/08/24 07:28:09;;;;;;;12.48;10.55;;;23.10;70.30;;;24.55;51.67;97693.06;5031937;28;20049;-63
2023/08/24 07:30:36;;;;;;;13.23;10.10;;;23.20;70.30;;;24.56;51.79;97698.25;5030876;28;20097;-63
2023/08/24 07:33:04;;;;;;;12.48;10.95;;;23.20;70.60;;;24.59;52.11;97691.47;5032527;28;20041;-63
2023/08/24 07:35:32;;;;;;;13.65;9.45;;;23.10;71.00;;;24.62;52.15;97692.88;5031838;28;20045;-63
2023/08/24 07:38:00;;;;;;;20.80;9.88;;;23.20;71.20;;;24.63;52.47;97679.00;5031636;28;20037;-63
2023/08/24 07:40:28;;;;;;;10.85;9.85;;;23.20;71.30;;;24.65;52.24;97678.78;5031542;28;20045;-63
2023/08/24 07:42:56;;;;;;;11.93;9.50;;;23.20;71.30;;;24.67;51.95;97674.72;5031718;28;20409;-63
2023/08/24 07:45:24;;;;;;;10.57;9.38;;;23.20;71.10;;;24.70;51.80;97674.22;5031815;28;20052;-63
2023/08/24 07:47:52;;;;;;;10.73;9.57;;;23.20;70.40;;;24.72;51.86;97677.50;5031686;28;20408;-62
2023/08/24 07:50:22;;;;;;;11.75;10.27;;;23.30;70.60;;;24.75;51.94;97682.44;5031240;28;20045;-62
2023/08/24 07:52:49;;;;;;;10.73;9.43;;;23.40;70.60;;;24.81;52.12;97685.25;5028997;28;20054;-62
2023/08/24 07:55:17;;;;;;;16.98;10.18;;;23.40;70.30;;;24.81;52.14;97691.50;5031117;28;20516;-62
2023/08/24 07:57:45;;;;;;;12.57;9.85;;;23.40;70.60;;;24.85;51.76;97700.00;5031470;28;20045;-62
2023/08/24 08:00:14;;;;;;;11.07;8.60;;;23.50;70.30;;;24.87;51.76;97701.41;5031307;28;20038;-62
2023/08/24 08:02:41;;;;;;;14.50;9.00;;;23.50;69.70;;;24.88;50.45;97700.31;5031274;28;20040;-63
2023/08/24 08:05:12;;;;;;;12.70;8.65;;;23.50;67.40;;;24.89;50.23;97698.41;5030470;28;20045;-63
2023/08/24 08:07:40;;;;;;;14.07;8.20;;;23.50;67.40;;;24.93;50.63;97688.66;5029397;28;20045;-63
2023/08/24 08:10:09;;;;;;;10.63;7.82;;;23.60;66.60;;;25.00;50.06;97688.47;5027966;28;20420;-63
2023/08/24 08:12:36;;;;;;;8.98;6.80;;;23.70;66.50;;;25.07;49.53;97681.78;5015509;28;20046;-63
2023/08/24 08:15:04;;;;;;;11.75;8.45;;;23.80;65.50;;;25.13;49.36;97679.94;5019471;28;20053;-63
2023/08/24 08:17:33;;;;;;;8.80;6.45;;;23.90;64.70;;;25.19;48.94;97675.38;5024804;28;20041;-63
2023/08/24 08:20:02;;;;;;;9.20;6.95;;;23.90;64.00;;;25.24;49.04;97676.28;5023908;28;20068;-63
2023/08/24 08:22:35;;;;;;;8.27;6.43;;;24.00;63.80;;;25.27;48.93;97686.66;5024960;28;20422;-63
2023/08/24 08:25:03;;;;;;;9.38;6.43;;;24.10;63.60;;;25.31;48.68;97693.25;5026556;28;20037;-63
2023/08/24 08:27:30;;;;;;;7.28;6.28;;;24.10;63.90;;;25.37;48.69;97702.28;5025912;28;20508;-63
2023/08/24 08:29:58;;;;;;;15.73;7.95;;;24.20;63.70;;;25.42;48.46;97699.63;5025273;28;20052;-64
2023/08/24 08:32:27;;;;;;;7.55;5.80;;;24.20;63.20;;;25.45;48.56;97692.84;5026587;28;20045;-63
2023/08/24 08:34:56;;;;;;;9.45;6.75;;;24.30;63.30;;;25.49;48.55;97692.09;5025778;28;20053;-63
2023/08/24 08:37:24;;;;;;;10.35;6.10;;;24.30;62.70;;;25.50;48.37;97687.47;5025515;28;20049;-63
2023/08/24 08:39:52;;;;;;;7.45;5.75;;;24.30;62.90;;;25.57;48.10;97685.34;5024937;28;20042;-64
2023/08/24 08:42:19;;;;;;;9.23;6.53;;;24.40;62.60;;;25.62;48.48;97687.31;5025897;28;20041;-64
2023/08/24 08:44:49;;;;;;;7.15;6.18;;;24.40;62.60;;;25.68;48.30;97692.53;5024773;28;20053;-63
2023/08/24 08:47:22;;;;;;;15.25;7.57;;;24.50;62.60;;;25.72;48.55;97692.84;5008491;28;20057;-63
2023/08/24 08:49:52;;;;;;;10.73;6.85;;;24.60;62.70;;;25.75;48.33;97692.34;5024984;28;20053;-63
2023/08/24 08:52:19;;;;;;;8.25;6.50;;;24.60;62.10;;;25.72;48.50;97693.66;5021716;28;20505;-64
2023/08/24 08:54:47;;;;;;;8.30;5.80;;;24.50;62.70;;;25.72;48.50;97698.28;5030415;28;20493;-63
2023/08/24 08:57:17;;;;;;;6.13;5.55;;;24.50;62.60;;;25.71;48.44;97694.75;5030686;28;20056;-63
2023/08/24 08:59:46;;;;;;;6.88;6.18;;;24.60;62.40;;;25.72;48.32;97690.94;5029242;28;20042;-63
2023/08/24 09:02:18;;;;;;;8.05;6.18;;;24.60;62.10;;;25.76;47.82;97685.78;5029570;28;20041;-63
2023/08/24 09:04:47;;;;;;;7.28;5.68;;;24.70;61.90;;;25.84;48.46;97677.16;5022636;28;20041;-63
2023/08/24 09:07:15;;;;;;;6.65;5.95;;;24.70;62.20;;;25.91;48.44;97666.06;5029609;28;20036;-63
2023/08/24 09:09:43;;;;;;;8.40;6.40;;;24.80;61.90;;;25.93;48.10;97667.44;5030250;28;20049;-63
2023/08/24 09:12:11;;;;;;;6.93;6.32;;;24.80;61.60;;;25.97;48.07;97650.56;5030543;28;20050;-63
2023/08/24 09:14:39;;;;;;;6.55;5.82;;;24.90;61.50;;;26.03;47.63;97660.44;5030972;28;20045;-63
2023/08/24 09:17:07;;;;;;;8.30;5.45;;;25.00;61.20;;;26.09;47.47;97662.09;5030615;28;20489;-63
2023/08/24 09:19:38;;;;;;;8.82;6.65;;;25.00;61.10;;;26.13;47.79;97649.59;5030168;28;20049;-63
2023/08/24 09:22:07;;;;;;;8.02;6.20;;;25.10;60.80;;;26.17;47.44;97642.50;5030318;28;20489;-63
2023/08/24 09:24:36;;;;;;;9.50;5.55;;;25.10;60.50;;;26.24;47.79;97634.94;5032837;28;20413;-63
2023/08/24 09:27:20;;;;;;;5.25;4.75;;;25.20;60.60;;;26.29;47.15;97613.16;5023211;28;20316;-63
2023/08/24 09:29:53;;;;;;;8.50;5.57;;;25.30;59.60;;;26.37;47.25;97616.47;5036642;28;20527;-63
2023/08/24 09:32:34;;;;;;;6.05;5.22;;;25.30;60.00;;;26.43;46.88;97620.88;5028648;28;20054;-63
2023/08/24 09:35:10;;;;;;;13.27;6.10;;;25.40;59.30;;;26.48;47.25;97619.00;5029020;28;20080;-63
2023/08/24 09:37:38;;;;;;;9.20;6.13;;;25.40;59.40;;;26.53;47.10;97619.00;5027702;28;20501;-63
2023/08/24 09:40:07;;;;;;;8.02;5.60;;;25.50;59.40;;;26.57;46.84;97611.09;5026761;28;20531;-63
2023/08/24 09:42:43;;;;;;;9.02;5.43;;;25.50;59.40;;;26.64;46.65;97603.53;5027025;28;20521;-63
2023/08/24 09:45:14;;;;;;;6.70;5.78;;;25.60;59.40;;;26.72;46.97;97599.47;5042569;28;20045;-63
2023/08/24 09:47:54;;;;;;;7.50;5.93;;;25.70;58.50;;;26.79;46.17;97593.75;5029317;28;20049;-63
2023/08/24 09:50:23;;;;;;;8.13;5.72;;;25.80;58.20;;;26.86;46.14;97576.03;5028965;28;20049;-63
2023/08/24 09:52:57;;;;;;;8.30;6.15;;;25.80;58.20;;;26.94;46.14;97560.22;5028863;28;20053;-63
2023/08/24 09:55:30;;;;;;;7.53;6.07;;;25.90;58.10;;;26.99;46.45;97561.06;5027534;28;20089;-63
2023/08/24 09:58:00;;;;;;;7.47;6.53;;;26.00;58.90;;;27.06;46.29;97561.63;5027665;28;20056;-63
2023/08/24 10:00:28;;;;;;;6.63;6.03;;;26.00;58.50;;;27.13;46.04;97555.09;5011409;28;20049;-63
2023/08/24 10:02:57;;;;;;;7.40;5.20;;;26.10;58.30;;;27.20;46.03;97545.53;5027335;28;20044;-63
2023/08/24 10:05:25;;;;;;;7.95;6.38;;;26.20;58.30;;;27.26;45.23;97536.28;5024790;28;20045;-63
2023/08/24 10:07:58;;;;;;;9.75;6.05;;;26.20;57.50;;;27.33;45.57;97535.19;5026691;28;20050;-63
2023/08/24 10:10:29;;;;;;;8.48;6.15;;;26.30;57.50;;;27.40;45.52;97528.34;5031861;28;20413;-61
2023/08/24 10:13:14;;;;;;;6.63;5.85;;;26.40;57.10;;;27.49;45.77;97528.59;5030868;28;20045;-61
2023/08/24 10:15:46;;;;;;;7.60;5.57;;;26.50;57.00;;;27.60;45.42;97527.50;5032142;28;20445;-61
2023/08/24 10:18:18;;;;;;;7.30;6.35;;;26.60;56.90;;;27.72;45.06;97526.41;5033264;28;20048;-62
2023/08/24 10:20:47;;;;;;;7.50;6.28;;;26.70;56.80;;;27.81;45.01;97522.84;5031895;28;20038;-61
2023/08/24 10:23:18;;;;;;;6.00;5.50;;;26.80;56.40;;;27.91;44.66;97522.03;5031899;28;20041;-61